PSLKS SBSL-SBBE
Flight info
| Callsign | PSLKS |
|---|---|
| Flight time | 0h 46m |
| Altitude | 40000 |
| Route | SAVIO DCT LIVED |
| Aircraft | C700/M-SBDGHM1RWXY/LB2 |
Departure
| Time | 2026-04-21 00:41 |
|---|---|
| Airport | Marechal Cunha Machado International Airport (SBSL) |
Arrival
| Time | 2026-04-21 01:27 |
|---|---|
| Airport | Val de Cans/Júlio Cezar Ribeiro International Airport (SBBE) |
| Time | Latitude | Longitude | Altitude | Speed | Heading |
|---|---|---|---|---|---|
| 2026-04-21 00:22 | -2.58336 | -44.23434 | 157 ft | 0 kts | 88° |
| 2026-04-21 00:37 | -2.58334 | -44.23425 | 157 ft | 6 kts | 70° |
| 2026-04-21 00:38 | -2.58323 | -44.23430 | 157 ft | 2 kts | 282° |
| 2026-04-21 00:38 | -2.58338 | -44.23465 | 157 ft | 8 kts | 223° |
| 2026-04-21 00:38 | -2.58388 | -44.23492 | 157 ft | 8 kts | 169° |
| 2026-04-21 00:38 | -2.58437 | -44.23448 | 157 ft | 11 kts | 133° |
| 2026-04-21 00:39 | -2.58482 | -44.23378 | 157 ft | 10 kts | 103° |
| 2026-04-21 00:39 | -2.58495 | -44.23373 | 157 ft | 0 kts | 223° |
| 2026-04-21 00:39 | -2.58514 | -44.23384 | 157 ft | 0 kts | 219° |
| 2026-04-21 00:40 | -2.58742 | -44.23567 | 158 ft | 94 kts | 218° |
| 2026-04-21 00:40 | -2.59487 | -44.24162 | 281 ft | 170 kts | 219° |
| 2026-04-21 00:41 | -2.60491 | -44.24967 | 1226 ft | 197 kts | 219° |
| 2026-04-21 00:41 | -2.61562 | -44.25914 | 2481 ft | 212 kts | 228° |
| 2026-04-21 00:41 | -2.62073 | -44.27289 | 3622 ft | 229 kts | 271° |
| 2026-04-21 00:41 | -2.61733 | -44.28927 | 4686 ft | 253 kts | 282° |
| 2026-04-21 00:42 | -2.61478 | -44.30786 | 5795 ft | 279 kts | 276° |
| 2026-04-21 00:42 | -2.61234 | -44.32741 | 7244 ft | 286 kts | 278° |
| 2026-04-21 00:42 | -2.60898 | -44.34701 | 8661 ft | 295 kts | 279° |
| 2026-04-21 00:42 | -2.60535 | -44.36746 | 10020 ft | 303 kts | 279° |
| 2026-04-21 00:43 | -2.60182 | -44.38897 | 11024 ft | 327 kts | 278° |
| 2026-04-21 00:43 | -2.59813 | -44.41198 | 12254 ft | 337 kts | 279° |
| 2026-04-21 00:43 | -2.59430 | -44.43527 | 13661 ft | 344 kts | 279° |
| 2026-04-21 00:43 | -2.59035 | -44.45910 | 14961 ft | 349 kts | 279° |
| 2026-04-21 00:44 | -2.58637 | -44.48328 | 16205 ft | 356 kts | 280° |
| 2026-04-21 00:44 | -2.58233 | -44.50795 | 17386 ft | 362 kts | 280° |
| 2026-04-21 00:44 | -2.57820 | -44.53303 | 18509 ft | 369 kts | 280° |
| 2026-04-21 00:45 | -2.56973 | -44.58454 | 20617 ft | 382 kts | 279° |
| 2026-04-21 00:45 | -2.56536 | -44.61101 | 21578 ft | 389 kts | 279° |
| 2026-04-21 00:45 | -2.56094 | -44.63791 | 22512 ft | 395 kts | 279° |
| 2026-04-21 00:45 | -2.55645 | -44.66523 | 23411 ft | 401 kts | 279° |
| 2026-04-21 00:46 | -2.55190 | -44.69289 | 24277 ft | 406 kts | 278° |
| 2026-04-21 00:46 | -2.54727 | -44.72096 | 25094 ft | 412 kts | 278° |
| 2026-04-21 00:46 | -2.54257 | -44.74939 | 25899 ft | 417 kts | 278° |
| 2026-04-21 00:46 | -2.53783 | -44.77821 | 26639 ft | 423 kts | 278° |
| 2026-04-21 00:47 | -2.53303 | -44.80740 | 27391 ft | 428 kts | 278° |
| 2026-04-21 00:47 | -2.52817 | -44.83689 | 28124 ft | 432 kts | 278° |
| 2026-04-21 00:47 | -2.52325 | -44.86668 | 28813 ft | 437 kts | 278° |
| 2026-04-21 00:47 | -2.51829 | -44.89683 | 29453 ft | 442 kts | 278° |
| 2026-04-21 00:48 | -2.51326 | -44.92733 | 30102 ft | 447 kts | 278° |
| 2026-04-21 00:48 | -2.50818 | -44.95811 | 30754 ft | 451 kts | 278° |
| 2026-04-21 00:48 | -2.50307 | -44.98915 | 31353 ft | 455 kts | 278° |
| 2026-04-21 00:48 | -2.49789 | -45.02052 | 31950 ft | 459 kts | 279° |
| 2026-04-21 00:49 | -2.49267 | -45.05216 | 32506 ft | 464 kts | 279° |
| 2026-04-21 00:49 | -2.48740 | -45.08413 | 33036 ft | 467 kts | 279° |
| 2026-04-21 00:49 | -2.48210 | -45.11623 | 33687 ft | 467 kts | 279° |
| 2026-04-21 00:49 | -2.47682 | -45.14817 | 34436 ft | 464 kts | 279° |
| 2026-04-21 00:50 | -2.47159 | -45.17997 | 35134 ft | 462 kts | 279° |
| 2026-04-21 00:50 | -2.46636 | -45.21161 | 35793 ft | 461 kts | 279° |
| 2026-04-21 00:50 | -2.46113 | -45.24326 | 36435 ft | 460 kts | 279° |
| 2026-04-21 00:50 | -2.45600 | -45.27436 | 37027 ft | 459 kts | 278° |
| 2026-04-21 00:51 | -2.45081 | -45.30574 | 37654 ft | 456 kts | 278° |
| 2026-04-21 00:51 | -2.44566 | -45.33692 | 38303 ft | 451 kts | 278° |
| 2026-04-21 00:51 | -2.44057 | -45.36776 | 38777 ft | 449 kts | 278° |
| 2026-04-21 00:51 | -2.43547 | -45.39863 | 39120 ft | 450 kts | 278° |
| 2026-04-21 00:52 | -2.43030 | -45.42987 | 39498 ft | 449 kts | 278° |
| 2026-04-21 00:52 | -2.42539 | -45.45956 | 39830 ft | 448 kts | 278° |
| 2026-04-21 00:52 | -2.42050 | -45.48921 | 39951 ft | 453 kts | 278° |
| 2026-04-21 00:52 | -2.41533 | -45.52053 | 39957 ft | 461 kts | 278° |
| 2026-04-21 00:53 | -2.40471 | -45.58468 | 39972 ft | 475 kts | 278° |
| 2026-04-21 00:53 | -2.39378 | -45.65078 | 39967 ft | 488 kts | 278° |
| 2026-04-21 00:54 | -2.38259 | -45.71842 | 39966 ft | 497 kts | 278° |
| 2026-04-21 00:54 | -2.37131 | -45.78649 | 39970 ft | 495 kts | 278° |
| 2026-04-21 00:55 | -2.36011 | -45.85417 | 39963 ft | 492 kts | 278° |
| 2026-04-21 00:55 | -2.34896 | -45.92150 | 39962 ft | 492 kts | 278° |
| 2026-04-21 00:56 | -2.33776 | -45.98912 | 39963 ft | 494 kts | 278° |
| 2026-04-21 00:56 | -2.32650 | -46.05708 | 39967 ft | 496 kts | 278° |
| 2026-04-21 00:57 | -2.31523 | -46.12503 | 39967 ft | 494 kts | 278° |
| 2026-04-21 00:57 | -2.30402 | -46.19263 | 39967 ft | 492 kts | 278° |
| 2026-04-21 00:58 | -2.29284 | -46.25999 | 39961 ft | 491 kts | 278° |
| 2026-04-21 00:58 | -2.28161 | -46.32772 | 39963 ft | 494 kts | 278° |
| 2026-04-21 00:59 | -2.27033 | -46.39569 | 39969 ft | 497 kts | 278° |
| 2026-04-21 00:59 | -2.25912 | -46.46322 | 39968 ft | 494 kts | 278° |
| 2026-04-21 01:00 | -2.24782 | -46.53121 | 39964 ft | 491 kts | 278° |
| 2026-04-21 01:00 | -2.23672 | -46.59810 | 39963 ft | 492 kts | 278° |
| 2026-04-21 01:01 | -2.22548 | -46.66571 | 39965 ft | 494 kts | 278° |
| 2026-04-21 01:01 | -2.21419 | -46.73366 | 39971 ft | 496 kts | 278° |
| 2026-04-21 01:02 | -2.20290 | -46.80148 | 39967 ft | 492 kts | 278° |
| 2026-04-21 01:02 | -2.19169 | -46.86894 | 39419 ft | 495 kts | 278° |
| 2026-04-21 01:03 | -2.18608 | -46.90271 | 38770 ft | 490 kts | 278° |
| 2026-04-21 01:03 | -2.18052 | -46.93607 | 38123 ft | 483 kts | 278° |
| 2026-04-21 01:03 | -2.17503 | -46.96895 | 37485 ft | 476 kts | 279° |
| 2026-04-21 01:03 | -2.16965 | -47.00136 | 36858 ft | 471 kts | 279° |
| 2026-04-21 01:04 | -2.16430 | -47.03358 | 36233 ft | 469 kts | 279° |
| 2026-04-21 01:04 | -2.15892 | -47.06599 | 35606 ft | 478 kts | 279° |
| 2026-04-21 01:04 | -2.15335 | -47.09930 | 34960 ft | 491 kts | 279° |
| 2026-04-21 01:04 | -2.14770 | -47.13315 | 34299 ft | 495 kts | 279° |
| 2026-04-21 01:05 | -2.14207 | -47.16707 | 33642 ft | 493 kts | 279° |
| 2026-04-21 01:05 | -2.13645 | -47.20083 | 32986 ft | 492 kts | 279° |
| 2026-04-21 01:05 | -2.13082 | -47.23462 | 32332 ft | 494 kts | 279° |
| 2026-04-21 01:05 | -2.12516 | -47.26856 | 31660 ft | 497 kts | 279° |
| 2026-04-21 01:06 | -2.11949 | -47.30276 | 31013 ft | 501 kts | 279° |
| 2026-04-21 01:06 | -2.11381 | -47.33671 | 30352 ft | 503 kts | 279° |
| 2026-04-21 01:06 | -2.10803 | -47.37125 | 29688 ft | 505 kts | 279° |
| 2026-04-21 01:06 | -2.10225 | -47.40593 | 29011 ft | 506 kts | 279° |
| 2026-04-21 01:07 | -2.09646 | -47.44079 | 28335 ft | 510 kts | 279° |
| 2026-04-21 01:07 | -2.09061 | -47.47584 | 27656 ft | 510 kts | 279° |
| 2026-04-21 01:07 | -2.08482 | -47.51057 | 26980 ft | 503 kts | 279° |
| 2026-04-21 01:07 | -2.07914 | -47.54475 | 26317 ft | 495 kts | 279° |
| 2026-04-21 01:08 | -2.07164 | -47.57825 | 25657 ft | 493 kts | 287° |
| 2026-04-21 01:08 | -2.05914 | -47.61000 | 25004 ft | 488 kts | 296° |
| 2026-04-21 01:08 | -2.04421 | -47.64042 | 24365 ft | 487 kts | 296° |
| 2026-04-21 01:08 | -2.02941 | -47.67080 | 23726 ft | 485 kts | 296° |
| 2026-04-21 01:09 | -2.01482 | -47.70110 | 23074 ft | 481 kts | 296° |
| 2026-04-21 01:09 | -2.00039 | -47.73094 | 22441 ft | 474 kts | 296° |
| 2026-04-21 01:09 | -1.98603 | -47.76040 | 21813 ft | 468 kts | 297° |
| 2026-04-21 01:09 | -1.97197 | -47.78930 | 21200 ft | 462 kts | 297° |
| 2026-04-21 01:10 | -1.95793 | -47.81828 | 20589 ft | 457 kts | 297° |
| 2026-04-21 01:10 | -1.94415 | -47.84671 | 19980 ft | 453 kts | 297° |
| 2026-04-21 01:10 | -1.93041 | -47.87499 | 19378 ft | 450 kts | 297° |
| 2026-04-21 01:10 | -1.91679 | -47.90299 | 18786 ft | 447 kts | 297° |
| 2026-04-21 01:11 | -1.90326 | -47.93088 | 18197 ft | 443 kts | 297° |
| 2026-04-21 01:11 | -1.88988 | -47.95848 | 17604 ft | 438 kts | 297° |
| 2026-04-21 01:11 | -1.87667 | -47.98565 | 17026 ft | 428 kts | 297° |
| 2026-04-21 01:11 | -1.86399 | -48.01178 | 16469 ft | 407 kts | 297° |
| 2026-04-21 01:12 | -1.85193 | -48.03662 | 15941 ft | 388 kts | 297° |
| 2026-04-21 01:12 | -1.84045 | -48.06031 | 15438 ft | 371 kts | 297° |
| 2026-04-21 01:12 | -1.82971 | -48.08244 | 14971 ft | 358 kts | 297° |
| 2026-04-21 01:12 | -1.81883 | -48.10475 | 14493 ft | 346 kts | 297° |
| 2026-04-21 01:13 | -1.80832 | -48.12636 | 14037 ft | 335 kts | 297° |
| 2026-04-21 01:13 | -1.79916 | -48.14531 | 13648 ft | 291 kts | 297° |
| 2026-04-21 01:13 | -1.79032 | -48.16349 | 13313 ft | 288 kts | 297° |
| 2026-04-21 01:13 | -1.78159 | -48.18140 | 12954 ft | 283 kts | 297° |
| 2026-04-21 01:14 | -1.77362 | -48.19785 | 12627 ft | 261 kts | 297° |
| 2026-04-21 01:14 | -1.76563 | -48.21427 | 12299 ft | 263 kts | 297° |
| 2026-04-21 01:14 | -1.75765 | -48.23073 | 11957 ft | 262 kts | 296° |
| 2026-04-21 01:14 | -1.74974 | -48.24707 | 11607 ft | 260 kts | 297° |
| 2026-04-21 01:15 | -1.74183 | -48.26331 | 11264 ft | 260 kts | 297° |
| 2026-04-21 01:15 | -1.73407 | -48.27919 | 10925 ft | 260 kts | 296° |
| 2026-04-21 01:15 | -1.72606 | -48.29570 | 10581 ft | 258 kts | 296° |
| 2026-04-21 01:15 | -1.71821 | -48.31185 | 10237 ft | 258 kts | 296° |
| 2026-04-21 01:16 | -1.71037 | -48.32798 | 9896 ft | 258 kts | 296° |
| 2026-04-21 01:16 | -1.70255 | -48.34409 | 9555 ft | 258 kts | 296° |
| 2026-04-21 01:16 | -1.69471 | -48.36024 | 9213 ft | 258 kts | 295° |
| 2026-04-21 01:16 | -1.68687 | -48.37636 | 8867 ft | 258 kts | 295° |
| 2026-04-21 01:17 | -1.67907 | -48.39242 | 8521 ft | 254 kts | 295° |
| 2026-04-21 01:17 | -1.67399 | -48.40285 | 8303 ft | 249 kts | 295° |
| 2026-04-21 01:17 | -1.66655 | -48.41818 | 7991 ft | 242 kts | 295° |
| 2026-04-21 01:17 | -1.65930 | -48.43310 | 7686 ft | 236 kts | 295° |
| 2026-04-21 01:18 | -1.65219 | -48.44772 | 7387 ft | 231 kts | 295° |
| 2026-04-21 01:18 | -1.64525 | -48.46201 | 7092 ft | 227 kts | 295° |
| 2026-04-21 01:18 | -1.63842 | -48.47606 | 6801 ft | 223 kts | 295° |
| 2026-04-21 01:18 | -1.63169 | -48.48992 | 6513 ft | 220 kts | 295° |
| 2026-04-21 01:19 | -1.62509 | -48.50349 | 6270 ft | 210 kts | 295° |
| 2026-04-21 01:19 | -1.61885 | -48.51632 | 5984 ft | 203 kts | 295° |
| 2026-04-21 01:19 | -1.61267 | -48.52905 | 5714 ft | 204 kts | 295° |
| 2026-04-21 01:19 | -1.60645 | -48.54187 | 5470 ft | 205 kts | 296° |
| 2026-04-21 01:20 | -1.59997 | -48.55458 | 5199 ft | 206 kts | 302° |
| 2026-04-21 01:20 | -1.59005 | -48.56465 | 4926 ft | 201 kts | 326° |
| 2026-04-21 01:20 | -1.57796 | -48.57078 | 4674 ft | 190 kts | 338° |
| 2026-04-21 01:20 | -1.56611 | -48.57608 | 4435 ft | 185 kts | 336° |
| 2026-04-21 01:21 | -1.55443 | -48.58143 | 4198 ft | 185 kts | 337° |
| 2026-04-21 01:21 | -1.54267 | -48.58678 | 3951 ft | 186 kts | 336° |
| 2026-04-21 01:21 | -1.53092 | -48.59212 | 3701 ft | 185 kts | 337° |
| 2026-04-21 01:21 | -1.51923 | -48.59682 | 3454 ft | 182 kts | 348° |
| 2026-04-21 01:22 | -1.50687 | -48.59703 | 3213 ft | 173 kts | 11° |
| 2026-04-21 01:22 | -1.49582 | -48.59287 | 3056 ft | 163 kts | 31° |
| 2026-04-21 01:22 | -1.48746 | -48.58589 | 2791 ft | 152 kts | 47° |
| 2026-04-21 01:22 | -1.48043 | -48.57852 | 2573 ft | 144 kts | 46° |
| 2026-04-21 01:23 | -1.47346 | -48.57132 | 2399 ft | 143 kts | 47° |
| 2026-04-21 01:23 | -1.46651 | -48.56423 | 2209 ft | 143 kts | 49° |
| 2026-04-21 01:23 | -1.45954 | -48.55725 | 2040 ft | 142 kts | 48° |
| 2026-04-21 01:23 | -1.45257 | -48.55043 | 1852 ft | 135 kts | 49° |
| 2026-04-21 01:24 | -1.44628 | -48.54410 | 1667 ft | 124 kts | 52° |
| 2026-04-21 01:24 | -1.44036 | -48.53803 | 1514 ft | 121 kts | 52° |
| 2026-04-21 01:24 | -1.43444 | -48.53203 | 1366 ft | 123 kts | 52° |
| 2026-04-21 01:24 | -1.42846 | -48.52594 | 1204 ft | 121 kts | 53° |
| 2026-04-21 01:25 | -1.42261 | -48.52011 | 1038 ft | 115 kts | 54° |
| 2026-04-21 01:25 | -1.41700 | -48.51430 | 883 ft | 121 kts | 52° |
| 2026-04-21 01:25 | -1.41086 | -48.50817 | 734 ft | 125 kts | 52° |
| 2026-04-21 01:25 | -1.40487 | -48.50214 | 565 ft | 120 kts | 52° |
| 2026-04-21 01:26 | -1.39918 | -48.49620 | 402 ft | 118 kts | 51° |
| 2026-04-21 01:26 | -1.39325 | -48.49035 | 253 ft | 119 kts | 47° |
| 2026-04-21 01:26 | -1.38774 | -48.48464 | 53 ft | 111 kts | 45° |
| 2026-04-21 01:26 | -1.38304 | -48.47998 | 38 ft | 70 kts | 45° |
| 2026-04-21 01:27 | -1.38060 | -48.47752 | 36 ft | 32 kts | 46° |
| 2026-04-21 01:27 | -1.37956 | -48.47630 | 34 ft | 12 kts | 89° |
| 2026-04-21 01:27 | -1.38021 | -48.47625 | 34 ft | 20 kts | 185° |
| 2026-04-21 01:27 | -1.38165 | -48.47636 | 37 ft | 22 kts | 185° |
| 2026-04-21 01:28 | -1.38325 | -48.47650 | 37 ft | 15 kts | 185° |
| 2026-04-21 01:28 | -1.38392 | -48.47634 | 37 ft | 9 kts | 110° |
| 2026-04-21 01:28 | -1.38399 | -48.47563 | 37 ft | 9 kts | 95° |
| 2026-04-21 01:28 | -1.38426 | -48.47535 | 37 ft | 7 kts | 179° |
| 2026-04-21 01:29 | -1.38484 | -48.47539 | 37 ft | 9 kts | 185° |
| 2026-04-21 01:29 | -1.38528 | -48.47542 | 37 ft | 3 kts | 167° |
| 2026-04-21 01:29 | -1.38541 | -48.47521 | 37 ft | 1 kts | 64° |
| 2026-04-21 01:29 | -1.38540 | -48.47520 | 37 ft | 0 kts | 44° |